createdAt,value
2023-03-07T00:00:59.311Z,6.8
2023-03-07T00:03:03.038Z,6
2023-03-07T00:05:09.629Z,5.4
2023-03-07T00:07:13.332Z,5.5
2023-03-07T00:09:17.122Z,5.7
2023-03-07T00:11:20.820Z,4.5
2023-03-07T00:13:24.575Z,5.8
2023-03-07T00:15:28.291Z,4.1
2023-03-07T00:17:32.082Z,4.1
2023-03-07T00:19:38.582Z,2.7
2023-03-07T00:23:46.063Z,4.4
2023-03-07T00:25:49.814Z,4.2
2023-03-07T00:27:53.547Z,2.6
2023-03-07T00:29:57.292Z,2
2023-03-07T00:32:01.012Z,1.8
2023-03-07T00:34:07.568Z,2.9
2023-03-07T00:36:11.293Z,2.7
2023-03-07T00:38:15.047Z,3.6
2023-03-07T00:51:06.079Z,4.5
2023-03-07T00:53:09.824Z,4.9
2023-03-07T00:57:17.262Z,4.5
2023-03-07T01:01:27.556Z,7
2023-03-07T01:05:35.016Z,8.4
2023-03-07T01:07:38.750Z,7.9
2023-03-07T01:09:42.467Z,6.9
2023-03-07T01:11:46.193Z,7.2
2023-03-07T01:13:49.926Z,9.1
2023-03-07T01:15:56.472Z,12.2
2023-03-07T01:18:00.216Z,9.6
2023-03-07T01:20:03.937Z,8.6
2023-03-07T01:22:07.692Z,10.4
2023-03-07T01:24:12.309Z,7.6
2023-03-07T01:26:16.034Z,6.9
2023-03-07T01:28:19.772Z,9.9
2023-03-07T01:32:30.102Z,6.2
2023-03-07T01:34:33.792Z,6.1
2023-03-07T01:39:44.608Z,5.3
2023-03-07T01:45:58.630Z,5.2
2023-03-07T01:48:02.377Z,4.9
2023-03-07T01:50:06.090Z,4.1
2023-03-07T01:52:11.280Z,5.5
2023-03-07T01:54:14.998Z,6.3
2023-03-07T01:56:18.707Z,3.8
2023-03-07T01:58:25.270Z,3.4
2023-03-07T02:00:28.985Z,3.3
2023-03-07T02:02:32.713Z,4.1
2023-03-07T02:04:36.493Z,3.7
2023-03-07T02:06:40.249Z,3.4
2023-03-07T02:08:44.037Z,3.8
2023-03-07T02:12:54.455Z,5.1
2023-03-07T02:14:58.146Z,4.8
2023-03-07T02:17:01.869Z,3.8
2023-03-07T02:19:05.607Z,4.1
2023-03-07T02:21:09.373Z,3.4
2023-03-07T02:23:13.058Z,3.6
2023-03-07T02:27:23.457Z,4.3
2023-03-07T02:29:27.168Z,4.4
2023-03-07T02:31:30.884Z,4.8
2023-03-07T02:32:34.202Z,4.3
2023-03-07T02:34:37.885Z,4.1
2023-03-07T02:36:41.618Z,3.7
2023-03-07T02:38:45.487Z,4.3
2023-03-07T02:40:52.001Z,4.1
2023-03-07T02:42:55.726Z,2.4
2023-03-07T02:44:59.449Z,2.9
2023-03-07T02:47:03.926Z,3.7
2023-03-07T02:49:07.651Z,3.9
2023-03-07T02:51:11.391Z,3.5
2023-03-07T02:53:15.109Z,2.5
2023-03-07T02:55:21.691Z,2.4
2023-03-07T02:57:25.404Z,2.7
2023-03-07T02:59:29.135Z,2.5
2023-03-07T03:07:44.022Z,2.7
2023-03-07T03:16:02.318Z,3.1
2023-03-07T03:18:05.955Z,3.2
2023-03-07T03:20:09.662Z,1.7
2023-03-07T03:22:13.408Z,2.4
2023-03-07T03:24:19.934Z,3.1
2023-03-07T03:26:23.660Z,2.2
2023-03-07T03:28:27.363Z,2.1
2023-03-07T03:29:30.621Z,2.3
2023-03-07T03:31:34.398Z,2.4
2023-03-07T03:33:38.182Z,2.1
2023-03-07T03:35:42.059Z,1.8
2023-03-07T03:39:52.275Z,1.5
2023-03-07T03:41:55.987Z,1.8
2023-03-07T03:43:59.733Z,2
2023-03-07T03:46:03.513Z,1.3
2023-03-07T03:48:07.232Z,1.9
2023-03-07T03:50:11.067Z,2.9
2023-03-07T03:52:17.583Z,2.8
2023-03-07T03:54:21.286Z,1.6
2023-03-07T03:56:25.026Z,1.9
2023-03-07T03:58:28.748Z,2.4
2023-03-07T04:00:32.418Z,2.5
2023-03-07T04:02:36.271Z,1.9
2023-03-07T04:04:39.879Z,1.7
2023-03-07T04:06:46.397Z,3.2
2023-03-07T04:08:50.125Z,2.2
2023-03-07T04:10:53.806Z,1.8
2023-03-07T04:12:57.530Z,1.7
2023-03-07T04:15:01.223Z,2.2
2023-03-07T04:17:04.963Z,2.3
2023-03-07T04:19:08.673Z,2.9
2023-03-07T04:21:15.221Z,2.1
2023-03-07T04:23:18.905Z,2.6
2023-03-07T04:25:22.640Z,2.8
2023-03-07T04:29:50.230Z,1.9
2023-03-07T04:31:53.984Z,2.6
2023-03-07T04:34:00.466Z,2.8
2023-03-07T04:36:04.274Z,2.6
2023-03-07T04:38:07.904Z,2.2
2023-03-07T04:40:11.637Z,2.5
2023-03-07T04:42:15.475Z,2.5
2023-03-07T04:44:19.193Z,4.3
2023-03-07T04:46:22.914Z,3.4
2023-03-07T04:48:29.447Z,4.8
2023-03-07T04:50:33.176Z,3.5
2023-03-07T04:52:36.980Z,3.4
2023-03-07T04:54:40.636Z,4.3
2023-03-07T04:56:44.475Z,4.1
2023-03-07T04:58:48.250Z,2.3
2023-03-07T05:00:52.089Z,2.1
2023-03-07T05:02:58.737Z,3
2023-03-07T05:05:02.436Z,2.9
2023-03-07T05:07:06.159Z,2.7
2023-03-07T05:09:09.859Z,2.3
2023-03-07T05:11:13.685Z,1.8
2023-03-07T05:19:31.354Z,2.4
2023-03-07T05:21:35.080Z,2.5
2023-03-07T05:22:38.361Z,3
2023-03-07T05:24:42.100Z,1.8
2023-03-07T05:26:45.794Z,2.2
2023-03-07T05:28:49.510Z,1.5
2023-03-07T05:32:59.767Z,2
2023-03-07T05:35:03.532Z,1.9
2023-03-07T05:37:07.189Z,2.1
2023-03-07T05:39:10.930Z,2.7
2023-03-07T05:41:15.389Z,2
2023-03-07T05:43:19.216Z,1.3
2023-03-07T05:49:33.182Z,0.5
2023-03-07T05:51:36.911Z,0.5
2023-03-07T05:53:40.605Z,1.4
2023-03-07T05:55:44.324Z,1.1
2023-03-07T05:57:48.061Z,0.9
2023-03-07T05:59:54.741Z,1.1
2023-03-07T06:01:58.391Z,1
2023-03-07T06:04:02.124Z,0.7
2023-03-07T06:06:05.792Z,1.2
2023-03-07T06:08:09.475Z,0.6
2023-03-07T06:10:13.197Z,1.8
2023-03-07T06:12:16.870Z,1.6
2023-03-07T06:14:23.388Z,1
2023-03-07T06:16:27.305Z,1
2023-03-07T06:18:30.880Z,0.8
2023-03-07T06:23:41.635Z,1.2
2023-03-07T06:27:51.835Z,0.6
2023-03-07T06:34:02.903Z,1.3
2023-03-07T06:36:06.688Z,0.9
2023-03-07T06:40:14.202Z,1.9
2023-03-07T06:44:24.459Z,0.8
2023-03-07T06:46:28.129Z,0.6
2023-03-07T06:48:31.847Z,0.9
2023-03-07T06:50:35.914Z,1
2023-03-07T06:52:39.357Z,0.8
2023-03-07T06:54:43.143Z,1.2
2023-03-07T06:56:49.632Z,0.9
2023-03-07T06:58:53.318Z,1
2023-03-07T07:00:56.973Z,1
2023-03-07T07:03:00.787Z,1.1
2023-03-07T07:05:04.312Z,0.4
2023-03-07T07:07:08.074Z,0.8
2023-03-07T07:09:11.761Z,0.7
2023-03-07T07:11:18.229Z,0.5
2023-03-07T07:13:21.910Z,1.1
2023-03-07T07:15:25.572Z,1.1
2023-03-07T07:16:28.885Z,0.7
2023-03-07T07:18:32.527Z,0.7
2023-03-07T07:20:36.227Z,0.9
2023-03-07T07:22:39.899Z,0.8
2023-03-07T07:24:46.485Z,0.8
2023-03-07T07:26:50.226Z,0.8
2023-03-07T07:28:53.907Z,0.9
2023-03-07T07:30:57.542Z,0.6
2023-03-07T07:35:04.946Z,0.9
2023-03-07T07:37:08.599Z,0.9
2023-03-07T07:39:15.071Z,1.1
2023-03-07T07:43:22.371Z,1
2023-03-07T07:45:26.029Z,1.2
2023-03-07T07:47:29.674Z,1
2023-03-07T07:49:34.840Z,0.7
2023-03-07T07:51:38.442Z,1
2023-03-07T07:53:44.882Z,0.9
2023-03-07T07:55:48.556Z,1
2023-03-07T07:57:52.203Z,1.2
2023-03-07T07:59:55.873Z,1.1
2023-03-07T08:01:59.530Z,1.3
2023-03-07T08:04:03.233Z,0.7
2023-03-07T08:06:06.795Z,1
2023-03-07T08:12:20.668Z,1.7
2023-03-07T08:14:44.278Z,1.4
2023-03-07T08:16:47.935Z,1.5
2023-03-07T08:18:51.608Z,1.8
2023-03-07T08:23:01.927Z,1.1
2023-03-07T08:25:05.571Z,1.4
2023-03-07T08:29:12.879Z,1.3
2023-03-07T08:31:16.686Z,1
2023-03-07T08:33:20.445Z,1.4
2023-03-07T08:39:34.450Z,1
2023-03-07T08:41:38.107Z,1.3
2023-03-07T08:43:41.871Z,1.5
2023-03-07T08:45:45.545Z,1.1
2023-03-07T08:49:55.717Z,1.2
2023-03-07T08:51:59.427Z,1.7
2023-03-07T08:54:03.076Z,1.6
2023-03-07T08:56:06.753Z,1.2
2023-03-07T09:02:17.795Z,1.8
2023-03-07T09:04:24.526Z,1.4
2023-03-07T09:06:28.087Z,1.6
2023-03-07T09:08:31.770Z,1.1
2023-03-07T09:13:51.469Z,1.8
2023-03-07T09:15:46.121Z,1.7
2023-03-07T09:17:52.606Z,2.4
2023-03-07T09:19:56.317Z,2
2023-03-07T09:21:59.981Z,1.7
2023-03-07T09:24:03.691Z,2.1
2023-03-07T09:26:07.390Z,1.8
2023-03-07T09:28:11.113Z,1.2
2023-03-07T09:30:14.831Z,3.2
2023-03-07T09:34:25.024Z,2.7
2023-03-07T09:36:28.707Z,3
2023-03-07T09:38:32.439Z,2.9
2023-03-07T09:40:36.135Z,2.9
2023-03-07T09:42:39.824Z,3.2
2023-03-07T09:44:43.534Z,3
2023-03-07T09:46:50.130Z,4.7
2023-03-07T09:48:53.781Z,2.9
2023-03-07T09:50:57.469Z,4.2
2023-03-07T09:53:01.204Z,3.5
2023-03-07T09:55:04.886Z,4.1
2023-03-07T09:57:08.617Z,3.6
2023-03-07T09:59:22.486Z,3.5
2023-03-07T10:03:22.576Z,5.1
2023-03-07T10:05:26.265Z,3.5
2023-03-07T10:06:29.528Z,5.3
2023-03-07T10:08:33.256Z,4.4
2023-03-07T10:10:36.966Z,3.3
2023-03-07T10:12:40.672Z,4.7
2023-03-07T10:14:47.232Z,4
2023-03-07T10:16:51.021Z,5.6
2023-03-07T10:18:54.669Z,5.1
2023-03-07T10:23:02.109Z,4.5
2023-03-07T10:25:05.816Z,3.5
2023-03-07T10:27:09.543Z,4.3
2023-03-07T10:29:16.116Z,4.9
2023-03-07T10:31:19.844Z,5.1
2023-03-07T10:33:23.508Z,4.4
2023-03-07T10:35:27.251Z,4.4
2023-03-07T10:39:34.719Z,5
2023-03-07T10:41:38.437Z,4
2023-03-07T10:43:44.969Z,5.2
2023-03-07T10:45:48.725Z,4.1
2023-03-07T10:47:52.440Z,3.7
2023-03-07T10:49:56.170Z,2.8
2023-03-07T10:51:59.907Z,3.6
2023-03-07T10:54:03.619Z,3.5
2023-03-07T10:56:07.375Z,3.9
2023-03-07T10:58:13.915Z,3.7
2023-03-07T11:00:17.780Z,3.2
2023-03-07T11:02:21.372Z,3.2
2023-03-07T11:03:24.658Z,3.9
2023-03-07T11:07:32.128Z,2.7
2023-03-07T11:09:35.878Z,2.7
2023-03-07T11:11:42.413Z,1.4
2023-03-07T11:13:46.165Z,2.7
2023-03-07T11:17:53.648Z,2.4
2023-03-07T11:19:57.386Z,2.3
2023-03-07T11:24:04.953Z,2.7
2023-03-07T11:26:11.423Z,1.9
2023-03-07T11:28:15.162Z,1.8
2023-03-07T11:32:22.722Z,1.8
2023-03-07T11:34:26.392Z,1.7
2023-03-07T11:38:33.897Z,1.6
2023-03-07T11:46:51.720Z,1.7
2023-03-07T11:53:02.869Z,1.1
2023-03-07T11:57:13.166Z,1.4
2023-03-07T11:59:16.934Z,1.8
2023-03-07T12:01:46.413Z,2.2
2023-03-07T12:05:53.909Z,0.9
2023-03-07T12:10:04.136Z,0.5
2023-03-07T12:14:11.603Z,0.6
2023-03-07T12:16:15.370Z,1.1
2023-03-07T12:20:22.770Z,0.9
2023-03-07T12:22:29.292Z,0.8
2023-03-07T12:24:33.017Z,0.8
2023-03-07T12:26:36.738Z,0.8
2023-03-07T12:28:40.449Z,1
2023-03-07T12:30:44.193Z,0.5
2023-03-07T12:32:48.010Z,0.7
2023-03-07T12:34:51.617Z,0.5
2023-03-07T12:36:58.170Z,1
2023-03-07T12:39:01.861Z,0.9
2023-03-07T12:45:12.990Z,0.4
2023-03-07T12:47:16.712Z,0.8
2023-03-07T12:49:20.421Z,0.7
2023-03-07T12:51:26.943Z,0.3
2023-03-07T12:53:30.678Z,0.4
2023-03-07T12:56:37.709Z,0.6
2023-03-07T12:58:41.384Z,0.3
2023-03-07T13:00:45.159Z,0.6
2023-03-07T13:02:48.659Z,0.6
2023-03-07T13:04:55.211Z,0.5
2023-03-07T13:06:58.930Z,0.3
2023-03-07T13:09:02.639Z,0.4
2023-03-07T13:11:06.376Z,0.6
2023-03-07T13:13:10.095Z,0.4
2023-03-07T13:15:13.811Z,1
2023-03-07T13:17:17.546Z,0.6
2023-03-07T13:19:26.407Z,0.8
2023-03-07T13:21:27.805Z,1.2
2023-03-07T13:23:31.638Z,1.7
2023-03-07T13:25:35.293Z,0.8
2023-03-07T13:27:39.047Z,0.6
2023-03-07T13:29:42.800Z,0.7
2023-03-07T13:31:46.536Z,0.7
2023-03-07T13:33:53.118Z,1.3
2023-03-07T13:35:56.992Z,0.9
2023-03-07T13:40:04.367Z,0.9
2023-03-07T13:42:08.130Z,1.1
2023-03-07T13:44:11.895Z,1.4
2023-03-07T13:46:17.196Z,1.9
2023-03-07T13:48:23.717Z,0.8
2023-03-07T13:50:27.472Z,1
2023-03-07T13:52:31.255Z,0.8
2023-03-07T13:53:34.556Z,0.9
2023-03-07T13:55:38.342Z,0.9
2023-03-07T13:57:42.092Z,0.6
2023-03-07T13:59:45.887Z,1.4
2023-03-07T14:03:56.332Z,1
2023-03-07T14:06:00.012Z,1
2023-03-07T14:12:11.367Z,1.1
2023-03-07T14:14:15.821Z,1.4
2023-03-07T14:16:21.722Z,0.4
2023-03-07T14:18:25.482Z,0.5
2023-03-07T14:22:33.009Z,0.9
2023-03-07T14:26:40.517Z,0.4
2023-03-07T14:28:44.262Z,0.4
2023-03-07T14:30:50.887Z,0.5
2023-03-07T14:34:58.322Z,0.7
2023-03-07T14:37:02.087Z,0.2
2023-03-07T14:39:05.785Z,0.5
2023-03-07T14:41:09.525Z,0.9
2023-03-07T14:43:13.242Z,0.4
2023-03-07T14:50:30.442Z,0.6
2023-03-07T14:52:34.163Z,0.7
2023-03-07T14:54:37.879Z,1.2
2023-03-07T14:56:41.572Z,0.9
2023-03-07T14:58:48.106Z,0.6
2023-03-07T15:00:51.824Z,1.4
2023-03-07T15:02:55.620Z,0.2
2023-03-07T15:04:59.312Z,0.4
2023-03-07T15:07:03.005Z,0.6
2023-03-07T15:09:06.738Z,0.4
2023-03-07T15:11:10.380Z,0.4
2023-03-07T15:13:16.920Z,0.5
2023-03-07T15:15:20.598Z,0.6
2023-03-07T15:17:24.296Z,1.1
2023-03-07T15:19:27.976Z,1.3
2023-03-07T15:21:31.631Z,0.5
2023-03-07T15:23:35.326Z,0.7
2023-03-07T15:25:39.152Z,0.7
2023-03-07T15:29:49.157Z,0.5
2023-03-07T15:33:56.501Z,1.1
2023-03-07T15:36:00.250Z,0.7
2023-03-07T15:38:03.850Z,0.6
2023-03-07T15:40:07.521Z,1.1
2023-03-07T15:42:13.979Z,1
2023-03-07T15:44:17.692Z,0.6
2023-03-07T15:46:21.340Z,1.1
2023-03-07T15:48:50.835Z,0.9
2023-03-07T15:50:54.602Z,1.2
2023-03-07T15:55:04.727Z,0.9
2023-03-07T15:57:08.418Z,1.6
2023-03-07T15:59:12.069Z,1
2023-03-07T16:01:15.737Z,1.3
2023-03-07T16:03:19.481Z,1.2
2023-03-07T16:09:33.189Z,1.3
2023-03-07T16:15:44.172Z,1.5
2023-03-07T16:19:51.550Z,1.5
2023-03-07T16:26:05.260Z,1.4
2023-03-07T16:28:08.929Z,1.4
2023-03-07T16:30:12.566Z,1.5
2023-03-07T16:36:23.529Z,2.1
2023-03-07T16:40:33.799Z,2
2023-03-07T16:42:37.431Z,1.9
2023-03-07T16:45:44.335Z,1.9
2023-03-07T16:47:47.953Z,2
2023-03-07T16:49:51.614Z,1.8
2023-03-07T16:52:05.649Z,2
2023-03-07T16:54:01.827Z,1.9
2023-03-07T16:56:05.480Z,2.4
2023-03-07T16:58:09.134Z,1.5
2023-03-07T17:00:12.769Z,3.5
2023-03-07T17:02:16.606Z,3.1
2023-03-07T17:04:20.142Z,2.6
2023-03-07T17:06:38.424Z,2.1
2023-03-07T17:08:30.303Z,2.8
2023-03-07T17:10:33.945Z,3.1
2023-03-07T17:12:37.772Z,2.8
2023-03-07T17:14:41.469Z,1.9
2023-03-07T17:16:45.300Z,2.4
2023-03-07T17:18:48.872Z,1.7
2023-03-07T17:20:55.357Z,3.1
2023-03-07T17:22:58.959Z,2.2
2023-03-07T17:25:02.636Z,1.8
2023-03-07T17:27:06.278Z,1.5
2023-03-07T17:29:09.941Z,1.9
2023-03-07T17:39:31.147Z,1.1
2023-03-07T17:40:34.456Z,1.5
2023-03-07T17:42:38.204Z,1.2
2023-03-07T17:44:41.916Z,1.3
2023-03-07T17:46:45.492Z,2
2023-03-07T17:48:51.975Z,2.9
2023-03-07T17:50:55.644Z,2.1
2023-03-07T17:52:59.275Z,2.2
2023-03-07T17:55:02.907Z,1.6
2023-03-07T17:57:06.557Z,2.1
2023-03-07T17:59:10.286Z,1.7
2023-03-07T18:01:14.017Z,2.7
2023-03-07T18:03:20.403Z,3.1
2023-03-07T18:05:24.037Z,3.2
2023-03-07T18:07:27.664Z,3.8
2023-03-07T18:09:31.330Z,4.2
2023-03-07T18:11:35.064Z,3.8
2023-03-07T18:13:38.683Z,3.4
2023-03-07T18:15:42.332Z,3.9
2023-03-07T18:17:49.286Z,3.6
2023-03-07T18:19:52.413Z,3.2
2023-03-07T18:21:56.087Z,3.4
2023-03-07T18:26:03.310Z,3.3
2023-03-07T18:28:06.946Z,3.8
2023-03-07T18:32:17.179Z,3.4
2023-03-07T18:34:20.893Z,4
2023-03-07T18:36:24.521Z,3.8
2023-03-07T18:37:27.737Z,3.3
2023-03-07T18:39:31.381Z,3.8
2023-03-07T18:41:35.025Z,2.9
2023-03-07T19:00:14.178Z,3.8
2023-03-07T19:02:17.437Z,2.5
2023-03-07T19:04:21.097Z,3.4
2023-03-07T19:06:24.719Z,3
2023-03-07T19:08:28.313Z,2.4
2023-03-07T19:10:32.025Z,2.9
2023-03-07T19:12:35.653Z,3.2
2023-03-07T19:16:45.913Z,3
2023-03-07T19:18:49.487Z,2.7
2023-03-07T19:20:53.072Z,2.3
2023-03-07T19:25:00.323Z,3.1
2023-03-07T19:27:04.009Z,3.4
2023-03-07T19:29:10.590Z,2.2
2023-03-07T19:31:14.313Z,3.6
2023-03-07T19:33:17.892Z,3.3
2023-03-07T19:35:47.501Z,2.4
2023-03-07T19:37:51.060Z,2.9
2023-03-07T19:39:54.711Z,2.6
2023-03-07T19:42:02.705Z,3.7
2023-03-07T19:44:06.394Z,2.1
2023-03-07T19:46:10.100Z,3
2023-03-07T19:48:13.666Z,3.4
2023-03-07T19:50:17.225Z,3
2023-03-07T19:52:20.812Z,2.8
2023-03-07T19:54:24.404Z,4.7
2023-03-07T19:56:30.779Z,3.9
2023-03-07T19:58:34.365Z,4
2023-03-07T20:00:38.141Z,2.1
2023-03-07T20:02:41.698Z,2.8
2023-03-07T20:04:45.348Z,3.9
2023-03-07T20:06:48.918Z,3.5
2023-03-07T20:08:52.540Z,2.7
2023-03-07T20:13:02.669Z,2.8
2023-03-07T20:15:06.246Z,4.1
2023-03-07T20:17:09.799Z,3.7
2023-03-07T20:19:13.391Z,2.8
2023-03-07T20:21:16.948Z,3.6
2023-03-07T20:29:34.328Z,2.9
2023-03-07T20:32:41.423Z,4.2
2023-03-07T20:34:44.930Z,3.1
2023-03-07T20:36:48.513Z,3.2
2023-03-07T20:38:54.994Z,2.9
2023-03-07T20:40:58.655Z,3.8
2023-03-07T20:43:02.196Z,3.2
2023-03-07T20:45:05.772Z,4.6
2023-03-07T20:47:09.425Z,5.9
2023-03-07T20:49:13.027Z,5
2023-03-07T20:51:16.661Z,4.4
2023-03-07T20:53:23.060Z,6.4
2023-03-07T20:57:30.417Z,4.7
2023-03-07T20:59:34.004Z,6
2023-03-07T21:01:37.730Z,6.4
2023-03-07T21:03:41.312Z,4.5
2023-03-07T21:05:44.802Z,6.6
2023-03-07T21:07:51.200Z,6
2023-03-07T21:14:02.223Z,5.7
2023-03-07T21:16:05.985Z,5.2
2023-03-07T21:18:09.557Z,7
2023-03-07T21:20:13.142Z,5.9
2023-03-07T21:22:19.636Z,6.6
2023-03-07T21:24:23.230Z,6.5
2023-03-07T21:26:26.797Z,7.6
2023-03-07T21:35:47.404Z,7.6
2023-03-07T21:39:54.662Z,7.2
2023-03-07T21:41:58.323Z,7.3
2023-03-07T21:44:02.000Z,7.5
2023-03-07T21:50:15.929Z,7
2023-03-07T21:52:19.484Z,6.4
2023-03-07T21:54:23.136Z,6.7
2023-03-07T21:56:26.706Z,6.3
2023-03-07T21:58:30.359Z,5.8
2023-03-07T22:02:37.709Z,7.2
2023-03-07T22:06:47.943Z,5.4
2023-03-07T22:08:51.567Z,5.8
2023-03-07T22:10:55.138Z,7.3
2023-03-07T22:17:05.869Z,6.1
2023-03-07T22:21:15.877Z,8.5
2023-03-07T22:23:19.435Z,6.7
2023-03-07T22:24:22.638Z,6.6
2023-03-07T22:26:26.211Z,7.5
2023-03-07T22:28:29.848Z,6.1
2023-03-07T22:30:33.376Z,8.4
2023-03-07T22:32:39.814Z,6.6
2023-03-07T22:36:46.846Z,7.9
2023-03-07T22:42:57.585Z,4.5
2023-03-07T22:47:07.576Z,7.2
2023-03-07T22:49:11.126Z,4.3
2023-03-07T22:51:14.668Z,6.1
2023-03-07T22:53:18.209Z,4
2023-03-07T22:55:21.767Z,5.8
2023-03-07T22:57:25.310Z,4.6
2023-03-07T23:01:35.181Z,5.2
2023-03-07T23:07:48.347Z,4.5
2023-03-07T23:09:49.649Z,4.9
2023-03-07T23:11:53.193Z,3.6
2023-03-07T23:13:56.833Z,3.4
2023-03-07T23:16:03.263Z,4.3
2023-03-07T23:18:06.726Z,4.9
2023-03-07T23:20:10.259Z,4.4
2023-03-07T23:22:39.808Z,5.7
2023-03-07T23:24:43.375Z,5.1
2023-03-07T23:26:46.992Z,4.4
2023-03-07T23:28:53.495Z,3.8
2023-03-07T23:30:57.224Z,2.9
2023-03-07T23:33:00.786Z,5.3
2023-03-07T23:37:07.991Z,3.8
2023-03-07T23:39:11.654Z,3.8
2023-03-07T23:43:21.841Z,5.2
2023-03-07T23:49:32.788Z,4.3
2023-03-07T23:51:36.413Z,4.5
2023-03-07T23:53:39.927Z,4.7
2023-03-07T23:55:43.474Z,4.2
2023-03-07T23:57:50.057Z,3.4
2023-03-07T23:59:53.684Z,2.9
